Accueil
METAR-TAF:

METAR-TAF

Aéroports :

Aérodrome de Futuna Pointe Vele

Futuna, France

latitude: 14-19S, longitude: 178-07W, altitude: 6 m

METAR: absent

Heure: 18:56 (06:56 UTC)

Prévision

Le bulletin a été fait il y a 1 heure et 56 minutes, à 05:00 UTC
Prévision valable du 20 à 06 UTC au 21 à 06 UTC
Vent 8 kt de est
Visibilité 10 km ou plus
Nuages épars à une hauteur de 2400 ft
Probabilité 40% :
Temporairement
du 21 à 00 UTC au 21 à 06 UTC
Quelques nuages à une hauteur de 1800 ft, Cumulonimbus.
averses de pluie

TAF: NLWF 200500Z 2006/2106 08008KT 9999 SCT024 PROB40 TEMPO 2100/2106 SHRA FEW018CB

Observations et prévisions météorologiques de plus de 4000 aéroports (messages METAR et TAF).

Les stations disponibles sont représentées par des disques jaunes et rouges sur la carte.

Passer la souris dessus pour voir le nom de la station.

Cliquer dessus pour voir les observations et prévisions météorologiques.

Pour changer de carte: cliquez sur les boutons verts avec une croix noire pour zoomer, sur le bouton vert avec un tiret pour effectuer un zoom arrière, ou sur les flèches vertes pour les cartes adjacentes.


METAR-TAF: